createdAt,value
2018-02-09T00:02:04.264Z,32.27
2018-02-09T00:04:32.439Z,29.10
2018-02-09T00:07:00.615Z,33.33
2018-02-09T00:09:28.790Z,32.17
2018-02-09T00:11:56.956Z,32.00
2018-02-09T00:14:25.137Z,31.13
2018-02-09T00:16:53.325Z,35.73
2018-02-09T00:19:21.502Z,31.57
2018-02-09T00:21:49.686Z,33.30
2018-02-09T00:24:17.857Z,34.07
2018-02-09T00:26:46.017Z,31.60
2018-02-09T00:29:14.193Z,31.67
2018-02-09T00:31:42.359Z,33.27
2018-02-09T00:34:10.546Z,32.73
2018-02-09T00:36:38.726Z,32.13
2018-02-09T00:39:06.894Z,32.27
2018-02-09T00:41:35.061Z,33.70
2018-02-09T00:44:03.241Z,31.50
2018-02-09T00:46:31.406Z,36.80
2018-02-09T00:48:59.561Z,32.20
2018-02-09T00:51:27.734Z,30.47
2018-02-09T00:53:55.929Z,32.20
2018-02-09T00:56:24.107Z,30.37
2018-02-09T00:58:52.279Z,30.77
2018-02-09T01:01:20.451Z,28.63
2018-02-09T01:03:48.649Z,28.00
2018-02-09T01:06:16.812Z,27.00
2018-02-09T01:08:44.996Z,29.70
2018-02-09T01:11:13.166Z,29.53
2018-02-09T01:13:41.338Z,29.60
2018-02-09T01:16:09.507Z,28.27
2018-02-09T01:18:37.676Z,27.13
2018-02-09T01:21:05.851Z,28.23
2018-02-09T01:23:34.025Z,28.77
2018-02-09T01:26:02.199Z,28.43
2018-02-09T01:28:30.393Z,29.73
2018-02-09T01:30:58.559Z,28.70
2018-02-09T01:33:26.757Z,27.47
2018-02-09T01:35:54.919Z,27.87
2018-02-09T01:38:23.137Z,27.57
2018-02-09T01:40:51.277Z,27.70
2018-02-09T01:43:19.445Z,26.40
2018-02-09T01:45:47.605Z,25.53
2018-02-09T01:48:15.787Z,26.37
2018-02-09T01:50:43.952Z,25.93
2018-02-09T01:53:12.145Z,24.77
2018-02-09T01:55:40.308Z,25.50
2018-02-09T01:58:08.473Z,26.60
2018-02-09T02:00:36.651Z,25.63
2018-02-09T02:03:04.834Z,25.83
2018-02-09T02:05:33.008Z,27.17
2018-02-09T02:08:01.179Z,26.67
2018-02-09T02:10:29.354Z,30.17
2018-02-09T02:12:57.527Z,26.97
2018-02-09T02:15:25.722Z,28.30
2018-02-09T02:17:53.888Z,30.70
2018-02-09T02:20:22.049Z,30.93
2018-02-09T02:22:50.233Z,29.10
2018-02-09T02:25:18.416Z,29.60
2018-02-09T02:27:46.609Z,27.47
2018-02-09T02:30:14.769Z,29.40
2018-02-09T02:32:42.934Z,30.07
2018-02-09T02:35:11.126Z,31.17
2018-02-09T02:37:40.078Z,29.70
2018-02-09T02:40:08.254Z,30.57
2018-02-09T02:42:36.443Z,27.90
2018-02-09T02:45:04.605Z,30.80
2018-02-09T02:47:32.762Z,31.37
2018-02-09T02:50:00.947Z,28.23
2018-02-09T02:52:29.115Z,29.50
2018-02-09T02:54:57.302Z,29.27
2018-02-09T02:57:25.488Z,27.47
2018-02-09T02:59:53.671Z,28.93
2018-02-09T03:02:21.866Z,28.00
2018-02-09T03:04:50.046Z,29.90
2018-02-09T03:07:18.220Z,28.43
2018-02-09T03:09:46.401Z,26.90
2018-02-09T03:12:15.346Z,29.07
2018-02-09T03:14:43.533Z,31.03
2018-02-09T03:17:11.710Z,29.27
2018-02-09T03:19:39.881Z,29.60
2018-02-09T03:22:08.045Z,29.80
2018-02-09T03:24:36.223Z,31.77
2018-02-09T03:27:04.388Z,31.07
2018-02-09T03:29:32.554Z,28.40
2018-02-09T03:32:00.746Z,27.40
2018-02-09T03:34:28.933Z,28.73
2018-02-09T03:36:57.093Z,28.93
2018-02-09T03:39:25.265Z,27.27
2018-02-09T03:41:53.443Z,30.53
2018-02-09T03:44:21.610Z,28.17
2018-02-09T03:46:49.784Z,30.53
2018-02-09T03:49:17.941Z,30.17
2018-02-09T03:51:46.113Z,28.97
2018-02-09T03:54:14.283Z,28.10
2018-02-09T03:56:42.474Z,29.80
2018-02-09T03:59:10.699Z,31.00
2018-02-09T04:01:38.890Z,29.50
2018-02-09T04:04:07.850Z,31.60
2018-02-09T04:06:36.028Z,31.77
2018-02-09T04:09:04.257Z,30.10
2018-02-09T04:11:32.435Z,31.17
2018-02-09T04:14:00.601Z,33.17
2018-02-09T04:16:28.765Z,32.37
2018-02-09T04:18:57.737Z,30.77
2018-02-09T04:21:25.940Z,33.83
2018-02-09T04:23:54.105Z,32.07
2018-02-09T04:26:23.048Z,31.60
2018-02-09T04:28:51.207Z,31.00
2018-02-09T04:31:19.388Z,31.63
2018-02-09T04:33:47.567Z,33.37
2018-02-09T04:36:15.741Z,32.30
2018-02-09T04:38:43.935Z,33.10
2018-02-09T04:41:12.129Z,33.17
2018-02-09T04:43:40.305Z,32.03
2018-02-09T04:46:09.262Z,30.53
2018-02-09T04:48:37.443Z,30.77
2018-02-09T04:51:05.646Z,31.40
2018-02-09T04:53:33.825Z,29.70
2018-02-09T04:56:02.785Z,31.20
2018-02-09T04:58:30.954Z,31.27
2018-02-09T05:00:59.891Z,31.50
2018-02-09T05:03:28.834Z,32.53
2018-02-09T05:05:57.018Z,31.70
2018-02-09T05:08:25.209Z,31.07
2018-02-09T05:10:53.419Z,31.57
2018-02-09T05:13:22.363Z,33.43
2018-02-09T05:15:50.534Z,32.73
2018-02-09T05:18:18.739Z,31.50
2018-02-09T05:20:46.906Z,29.00
2018-02-09T05:23:15.082Z,31.70
2018-02-09T05:25:43.264Z,30.60
2018-02-09T05:28:11.468Z,30.53
2018-02-09T05:30:39.665Z,30.63
2018-02-09T05:33:07.898Z,31.67
2018-02-09T05:35:36.849Z,29.93
2018-02-09T05:38:05.037Z,30.80
2018-02-09T05:40:33.216Z,30.77
2018-02-09T05:43:01.412Z,30.10
2018-02-09T05:45:30.365Z,32.40
2018-02-09T05:47:58.533Z,29.20
2018-02-09T05:50:26.710Z,28.27
2018-02-09T05:52:54.878Z,28.77
2018-02-09T05:55:23.047Z,29.93
2018-02-09T05:57:51.246Z,30.30
2018-02-09T06:00:19.421Z,30.53
2018-02-09T06:02:47.615Z,32.20
2018-02-09T06:05:15.804Z,31.17
2018-02-09T06:07:44.782Z,34.63
2018-02-09T06:10:13.005Z,31.20
2018-02-09T06:12:41.187Z,34.10
2018-02-09T06:15:09.460Z,32.97
2018-02-09T06:17:37.701Z,33.40
2018-02-09T06:20:06.662Z,32.43
2018-02-09T06:22:34.825Z,32.30
2018-02-09T06:25:03.071Z,35.70
2018-02-09T06:27:31.309Z,32.87
2018-02-09T06:29:59.556Z,34.90
2018-02-09T06:32:27.838Z,35.63
2018-02-09T06:34:56.066Z,33.30
2018-02-09T06:37:24.369Z,34.10
2018-02-09T06:39:52.547Z,35.53
2018-02-09T06:42:20.776Z,33.40
2018-02-09T06:44:49.759Z,32.93
2018-02-09T06:47:18.045Z,33.77
2018-02-09T06:49:47.025Z,35.60
2018-02-09T06:52:15.257Z,35.33
2018-02-09T06:54:43.452Z,39.23
2018-02-09T06:57:12.418Z,43.93
2018-02-09T06:59:40.624Z,46.13
2018-02-09T07:02:08.822Z,44.07
2018-02-09T07:04:37.024Z,50.00
2018-02-09T07:07:11.262Z,46.43
2018-02-09T07:09:39.522Z,48.03
2018-02-09T07:12:07.811Z,50.60
2018-02-09T07:14:36.079Z,49.87
2018-02-09T07:17:04.313Z,52.47
2018-02-09T07:19:32.567Z,50.67
2018-02-09T07:22:00.760Z,54.80
2018-02-09T07:24:28.967Z,55.50
2018-02-09T07:26:57.902Z,56.33
2018-02-09T07:29:26.079Z,59.30
2018-02-09T07:31:54.263Z,50.20
2018-02-09T07:34:22.440Z,49.90
2018-02-09T07:36:50.630Z,52.37
2018-02-09T07:39:18.810Z,56.73
2018-02-09T07:41:47.049Z,55.23
2018-02-09T07:44:15.348Z,57.73
2018-02-09T07:46:43.533Z,61.20
2018-02-09T07:49:11.729Z,60.43
2018-02-09T07:51:40.727Z,60.10
2018-02-09T07:54:09.702Z,51.60
2018-02-09T07:56:37.897Z,59.93
2018-02-09T07:59:06.897Z,64.87
2018-02-09T09:23:33.605Z,54.73
2018-02-09T09:26:01.808Z,54.63
2018-02-09T09:28:29.993Z,56.00
2018-02-09T09:30:58.188Z,58.20
2018-02-09T09:33:26.380Z,56.67
2018-02-09T09:35:54.631Z,56.57
2018-02-09T09:38:22.786Z,81.60
2018-02-09T09:40:50.967Z,61.50
2018-02-09T09:43:19.178Z,52.10
2018-02-09T09:45:47.386Z,47.13
2018-02-09T09:48:15.567Z,56.87
2018-02-09T09:50:43.781Z,48.80
2018-02-09T09:53:12.034Z,49.40
2018-02-09T09:55:40.251Z,49.07
2018-02-09T09:58:08.439Z,45.07
2018-02-09T10:00:37.397Z,51.23
2018-02-09T10:03:05.594Z,48.83
2018-02-09T10:05:33.792Z,46.90
2018-02-09T10:08:02.741Z,52.80
2018-02-09T10:10:30.929Z,50.40
2018-02-09T10:12:59.133Z,51.33
2018-02-09T10:15:28.102Z,52.93
2018-02-09T10:17:56.339Z,54.63
2018-02-09T10:20:24.514Z,50.53
2018-02-09T10:22:52.750Z,48.00
2018-02-09T10:25:21.710Z,49.50
2018-02-09T10:27:49.899Z,46.67
2018-02-09T11:46:15.743Z,46.50
2018-02-09T11:48:43.930Z,47.20
2018-02-09T11:51:12.959Z,51.10
2018-02-09T11:53:41.270Z,50.80
2018-02-09T11:56:09.449Z,51.60
2018-02-09T11:58:37.681Z,54.97
2018-02-09T12:01:05.900Z,52.33
2018-02-09T12:03:34.173Z,56.17
2018-02-09T12:06:02.379Z,58.33
2018-02-09T12:08:30.637Z,53.50
2018-02-09T12:11:02.834Z,53.27
2018-02-09T12:13:31.828Z,53.53
2018-02-09T12:16:00.810Z,51.20
2018-02-09T12:18:33.629Z,50.20
2018-02-09T12:21:02.098Z,47.90
2018-02-09T12:23:30.286Z,52.17
2018-02-09T12:25:59.093Z,50.83
2018-02-09T12:28:28.636Z,49.60
2018-02-09T12:31:00.964Z,50.60
2018-02-09T12:33:29.175Z,49.53
2018-02-09T12:35:57.472Z,47.40
2018-02-09T12:38:31.650Z,50.90
2018-02-09T12:40:59.843Z,48.20
2018-02-09T12:43:28.003Z,49.97
2018-02-09T12:45:56.185Z,51.17
2018-02-09T12:48:24.341Z,47.07
2018-02-09T12:50:52.512Z,56.07
2018-02-09T12:53:20.724Z,52.17
2018-02-09T12:55:48.893Z,51.73
2018-02-09T12:58:17.125Z,48.93
2018-02-09T13:00:45.302Z,48.23
2018-02-09T13:03:13.488Z,48.77
2018-02-09T13:05:41.698Z,50.93
2018-02-09T13:08:09.919Z,51.33
2018-02-09T13:10:38.125Z,51.70
2018-02-09T13:13:08.250Z,54.13
2018-02-09T13:15:36.433Z,53.60
2018-02-09T13:18:04.644Z,53.03
2018-02-09T13:20:33.599Z,55.40
2018-02-09T13:23:19.819Z,56.63
2018-02-09T13:25:47.993Z,56.73
2018-02-09T13:28:34.903Z,54.40
2018-02-09T13:31:03.099Z,57.80
2018-02-09T13:33:32.088Z,55.90
2018-02-09T13:36:01.032Z,57.43
2018-02-09T13:38:29.242Z,60.33
2018-02-09T13:40:57.476Z,55.57
2018-02-09T13:43:25.661Z,53.53
2018-02-09T13:45:53.883Z,56.03
2018-02-09T14:32:04.722Z,57.40
2018-02-09T14:34:33.848Z,54.83
2018-02-09T14:37:02.818Z,62.23
2018-02-09T14:39:31.069Z,57.50
2018-02-09T14:41:59.289Z,54.47
2018-02-09T14:44:28.241Z,52.87
2018-02-09T14:46:56.438Z,55.40
2018-02-09T14:49:24.633Z,57.67
2018-02-09T14:51:53.582Z,54.20
2018-02-09T14:54:21.777Z,50.33
2018-02-09T14:56:49.973Z,55.57
2018-02-09T14:59:18.942Z,53.80
2018-02-09T15:01:47.118Z,55.13
2018-02-09T15:04:15.342Z,52.43
2018-02-09T15:06:43.534Z,52.87
2018-02-09T15:09:11.719Z,55.43
2018-02-09T15:11:39.914Z,51.50
2018-02-09T15:14:08.091Z,53.80
2018-02-09T15:16:37.780Z,53.60
2018-02-09T15:19:05.961Z,52.27
2018-02-09T15:21:34.951Z,54.77
2018-02-09T15:24:03.134Z,49.80
2018-02-09T15:26:31.398Z,52.37
2018-02-09T15:28:59.599Z,52.33
2018-02-09T15:31:27.789Z,51.13
2018-02-09T15:33:55.987Z,53.70
2018-02-09T15:36:24.202Z,57.50
2018-02-09T15:38:52.377Z,53.60
2018-02-09T15:41:21.157Z,55.13
2018-02-09T15:43:49.339Z,57.60
2018-02-09T15:46:18.334Z,55.57
2018-02-09T15:48:46.514Z,62.53
2018-02-09T15:51:14.694Z,62.80
2018-02-09T15:53:42.881Z,54.80
2018-02-09T15:56:11.106Z,60.37
2018-02-09T15:58:39.302Z,60.03
2018-02-09T16:01:07.498Z,61.97
2018-02-09T16:03:35.693Z,64.77
2018-02-09T16:06:03.958Z,63.50
2018-02-09T16:08:32.149Z,64.20
2018-02-09T16:11:01.114Z,63.47
2018-02-09T16:13:29.290Z,63.50
2018-02-09T16:15:58.231Z,64.37
2018-02-09T16:18:26.429Z,68.57
2018-02-09T16:20:54.625Z,62.57
2018-02-09T16:23:22.829Z,63.93
2018-02-09T16:25:51.020Z,62.90
2018-02-09T16:28:20.057Z,65.20
2018-02-09T16:30:48.301Z,63.83
2018-02-09T16:33:16.528Z,63.17
2018-02-09T16:35:44.725Z,63.83
2018-02-09T16:38:12.911Z,62.03
2018-02-09T16:40:41.890Z,64.77
2018-02-09T16:43:10.082Z,63.33
2018-02-09T16:45:39.029Z,62.27
2018-02-09T16:48:07.223Z,62.83
2018-02-09T16:50:35.418Z,70.07
2018-02-09T16:53:04.367Z,63.47
2018-02-09T16:55:32.538Z,60.10
2018-02-09T16:58:00.739Z,62.90
2018-02-09T17:00:28.922Z,61.67
2018-02-09T17:02:57.162Z,58.60
2018-02-09T17:05:25.360Z,62.13
2018-02-09T17:07:53.554Z,57.43
2018-02-09T17:10:21.731Z,59.73
2018-02-09T17:12:50.698Z,62.77
2018-02-09T17:15:18.950Z,59.50
2018-02-09T17:17:47.119Z,61.40
2018-02-09T17:20:15.307Z,63.40
2018-02-09T17:22:43.513Z,59.53
2018-02-09T17:25:11.693Z,62.43
2018-02-09T17:27:39.897Z,61.97
2018-02-09T17:30:08.086Z,66.37
2018-02-09T17:32:36.257Z,61.10
2018-02-09T17:35:04.434Z,66.20
2018-02-09T17:37:32.719Z,62.50
2018-02-09T17:40:01.673Z,66.13
2018-02-09T17:42:30.660Z,56.60
2018-02-09T19:06:56.597Z,60.37
2018-02-09T19:09:24.807Z,62.77
2018-02-09T19:11:53.015Z,64.30
2018-02-09T19:14:22.021Z,66.20
2018-02-09T19:16:50.266Z,68.03
2018-02-09T19:19:18.457Z,67.07
2018-02-09T19:21:47.435Z,66.17
2018-02-09T19:24:15.636Z,63.47
2018-02-09T19:26:43.820Z,60.37
2018-02-09T19:29:12.015Z,65.70
2018-02-09T19:31:40.197Z,62.43
2018-02-09T19:34:08.382Z,62.33
2018-02-09T19:36:36.574Z,62.53
2018-02-09T19:39:04.815Z,65.57
2018-02-09T19:41:33.057Z,66.30
2018-02-09T19:44:02.052Z,59.43
2018-02-09T19:46:31.050Z,58.33
2018-02-09T19:48:59.998Z,66.00
2018-02-09T19:51:28.209Z,67.40
2018-02-09T19:53:57.178Z,66.23
2018-02-09T19:56:25.403Z,71.63
2018-02-09T19:58:54.369Z,67.43
2018-02-09T20:01:23.407Z,66.40
2018-02-09T20:03:51.601Z,69.23
2018-02-09T20:06:19.808Z,67.83
2018-02-09T20:08:48.775Z,63.90
2018-02-09T20:11:17.065Z,58.87
2018-02-09T20:13:45.260Z,65.70
2018-02-09T20:16:14.220Z,63.37
2018-02-09T20:18:42.420Z,65.50
2018-02-09T20:21:11.395Z,74.27
2018-02-09T20:23:39.597Z,76.50
2018-02-09T20:26:08.543Z,75.10
2018-02-09T20:28:36.748Z,74.27
2018-02-09T20:31:04.959Z,70.67
2018-02-09T20:33:33.170Z,69.00
2018-02-09T20:36:01.352Z,74.83
2018-02-09T20:38:29.556Z,74.83
2018-02-09T20:40:58.555Z,73.80
2018-02-09T20:43:27.525Z,72.40
2018-02-09T20:45:55.831Z,76.07
2018-02-09T20:48:24.822Z,72.43
2018-02-09T20:50:53.871Z,71.67
2018-02-09T20:53:22.083Z,74.73
2018-02-09T20:55:50.269Z,75.20
2018-02-09T20:58:19.240Z,77.27
2018-02-09T21:00:47.440Z,71.37
2018-02-09T21:03:16.395Z,69.93
2018-02-09T21:05:44.597Z,74.57
2018-02-09T21:08:13.568Z,67.07
2018-02-09T21:10:41.759Z,68.50
2018-02-09T21:13:09.954Z,76.63
2018-02-09T21:15:38.946Z,70.97
2018-02-09T21:18:07.918Z,72.03
2018-02-09T21:20:36.155Z,73.67
2018-02-09T21:23:04.372Z,67.13
2018-02-09T21:25:32.565Z,74.13
2018-02-09T21:28:01.544Z,70.73
2018-02-09T21:30:30.514Z,72.67
2018-02-09T21:32:58.728Z,71.30
2018-02-09T21:35:27.698Z,75.87
2018-02-09T21:37:55.900Z,68.03
2018-02-09T21:40:24.105Z,75.07
2018-02-09T21:42:52.342Z,68.27
2018-02-09T21:45:21.359Z,65.87
2018-02-09T21:47:49.603Z,65.50
2018-02-09T21:50:18.584Z,68.50
2018-02-09T21:52:46.793Z,89.93
2018-02-09T21:55:14.993Z,78.33
2018-02-09T21:57:43.176Z,94.37
2018-02-09T22:00:11.408Z,78.00
2018-02-09T22:02:40.363Z,72.70
2018-02-09T22:05:08.548Z,78.07
2018-02-09T22:07:36.748Z,73.63
2018-02-09T22:10:05.696Z,78.57
2018-02-09T22:12:33.920Z,68.70
2018-02-09T22:15:02.893Z,74.50
2018-02-09T22:17:31.068Z,72.07
2018-02-09T22:19:59.313Z,76.10
2018-02-09T22:22:27.519Z,79.23
2018-02-09T22:24:55.698Z,67.93
2018-02-09T22:27:23.899Z,75.03
2018-02-09T22:29:52.082Z,83.80
2018-02-09T22:32:20.283Z,84.80
2018-02-09T22:34:49.250Z,81.37
2018-02-09T22:37:17.486Z,71.53
2018-02-09T22:39:45.696Z,78.33
2018-02-09T22:42:13.874Z,83.50
2018-02-09T22:44:42.086Z,78.53
2018-02-09T22:47:10.284Z,76.83
2018-02-09T22:49:38.502Z,78.43
2018-02-09T22:52:06.690Z,75.00
2018-02-09T22:54:34.936Z,74.43
2018-02-09T22:57:03.104Z,72.93
2018-02-09T22:59:32.177Z,82.03
2018-02-09T23:02:00.363Z,87.10
2018-02-09T23:04:29.324Z,90.53
2018-02-09T23:06:57.574Z,71.57
2018-02-09T23:09:25.721Z,78.07
2018-02-09T23:11:54.751Z,82.23
2018-02-09T23:14:22.948Z,90.80
2018-02-09T23:16:51.150Z,85.13
2018-02-09T23:19:19.345Z,90.50
2018-02-09T23:21:48.311Z,102.27
2018-02-09T23:24:16.524Z,84.77
2018-02-09T23:26:44.721Z,85.63
2018-02-09T23:29:12.998Z,87.10
2018-02-09T23:31:41.173Z,87.50
2018-02-09T23:34:09.370Z,91.20
2018-02-09T23:36:37.578Z,83.97
2018-02-09T23:39:06.557Z,91.40
2018-02-09T23:41:34.755Z,87.60
2018-02-09T23:44:03.705Z,92.80
2018-02-09T23:46:31.927Z,92.73
2018-02-09T23:49:00.874Z,85.80
2018-02-09T23:51:29.046Z,87.23
2018-02-09T23:53:57.246Z,89.90
2018-02-09T23:56:25.425Z,93.97
2018-02-09T23:58:54.402Z,88.93
